CheckWX is a tool to help pilots better visualize weather data.  It is not intended as a substitute for an official pre-flight weather briefing.

04:25:00 UTC

LFOE TAF
Évreux-Fauville (BA 105) Air Base Airport
Évreux/Fauville, France
TAF LFOE 010800Z 0109/0209 06012G22KT CAVOK BECMG 0121/0124 01010KT

Jun-1@
09:00 UTC

Jun-1 @ 09:00 UTC

Jun-1@
21:00 UTC

Jun-1 @ 21:00 UTC

TAF LFOE 010800Z 0109/0209 06012G22KT CAVOK

Expired

Wind
  • 060° at 12 KTS
  • {Gusting to 22 KTS
Conditions
No significant weather
Cloud Levels
  • No significant clouds

Jun-1@
21:00 UTC

Jun-1 @ 21:00 UTC

Jun-2@
09:00 UTC

Jun-2 @ 09:00 UTC

BECMG 0121/0124 01010KT

Becoming

Becoming Conditions expected by Tue, Jun 2, 2020 @ 00:00 UTC

Wind
  • 010° at 10 KTS
Conditions
No significant weather
Cloud Levels
  • No significant clouds